createdAt,value
2022-12-29T00:01:32.753Z,7.72
2022-12-29T00:06:34.479Z,7.76
2022-12-29T00:11:36.160Z,7.80
2022-12-29T00:16:38.925Z,7.89
2022-12-29T00:21:59.423Z,8.02
2022-12-29T00:27:22.950Z,8.10
2022-12-29T00:32:43.173Z,8.13
2022-12-29T00:38:07.486Z,8.19
2022-12-29T00:43:28.079Z,8.23
2022-12-29T00:48:48.459Z,8.26
2022-12-29T00:53:50.509Z,8.33
2022-12-29T00:58:52.286Z,8.37
2022-12-29T01:03:57.368Z,8.36
2022-12-29T01:09:20.629Z,8.37
2022-12-29T01:14:24.051Z,8.37
2022-12-29T01:19:26.559Z,8.32
2022-12-29T01:24:28.419Z,8.23
2022-12-29T01:29:30.289Z,8.00
2022-12-29T01:34:32.306Z,7.77
2022-12-29T01:39:33.996Z,7.56
2022-12-29T01:44:49.489Z,7.25
2022-12-29T01:49:57.468Z,6.87
2022-12-29T01:55:00.021Z,6.60
2022-12-29T02:00:14.522Z,6.48
2022-12-29T02:05:29.931Z,6.55
2022-12-29T02:10:35.532Z,6.89
2022-12-29T02:16:03.561Z,7.23
2022-12-29T02:21:40.062Z,7.44
2022-12-29T02:27:19.347Z,7.56
2022-12-29T02:32:39.425Z,7.36
2022-12-29T02:37:47.930Z,7.41
2022-12-29T02:42:56.691Z,7.34
2022-12-29T02:48:09.419Z,7.23
2022-12-29T02:53:18.394Z,7.11
2022-12-29T02:58:24.442Z,7.13
2022-12-29T03:03:49.364Z,7.42
2022-12-29T03:09:03.641Z,7.75
2022-12-29T03:14:46.530Z,8.03
2022-12-29T03:19:53.034Z,8.28
2022-12-29T03:25:00.524Z,8.48
2022-12-29T03:30:05.587Z,8.65
2022-12-29T03:35:11.910Z,8.81
2022-12-29T03:40:13.717Z,8.89
2022-12-29T03:45:16.557Z,8.92
2022-12-29T03:50:20.727Z,8.94
2022-12-29T03:55:22.593Z,8.96
2022-12-29T04:00:24.396Z,9.04
2022-12-29T04:05:28.515Z,9.09
2022-12-29T04:10:30.829Z,9.12
2022-12-29T04:15:36.262Z,9.17
2022-12-29T04:20:56.852Z,9.20
2022-12-29T04:25:58.974Z,9.22
2022-12-29T04:31:03.624Z,9.21
2022-12-29T04:36:15.087Z,9.23
2022-12-29T04:41:18.420Z,9.33
2022-12-29T04:46:20.279Z,9.35
2022-12-29T04:51:36.566Z,9.28
2022-12-29T04:56:38.498Z,9.24
2022-12-29T05:01:40.399Z,9.20
2022-12-29T05:06:42.415Z,9.18
2022-12-29T05:11:44.977Z,9.16
2022-12-29T05:16:46.804Z,9.15
2022-12-29T05:21:48.706Z,9.17
2022-12-29T05:26:51.105Z,9.18
2022-12-29T05:32:25.581Z,9.22
2022-12-29T05:37:28.839Z,9.25
2022-12-29T05:42:31.069Z,9.26
2022-12-29T05:48:11.260Z,9.25
2022-12-29T05:53:42.172Z,9.25
2022-12-29T05:58:43.925Z,9.26
2022-12-29T06:03:48.360Z,9.31
2022-12-29T06:08:50.888Z,9.41
2022-12-29T06:13:54.170Z,9.54
2022-12-29T06:18:56.298Z,9.67
2022-12-29T06:23:58.079Z,9.72
2022-12-29T06:29:00.509Z,9.74
2022-12-29T06:34:07.907Z,9.76
2022-12-29T06:39:11.422Z,9.79
2022-12-29T06:44:13.184Z,9.83
2022-12-29T06:49:25.021Z,9.85
2022-12-29T06:54:26.733Z,9.88
2022-12-29T06:59:28.386Z,9.90
2022-12-29T07:04:30.459Z,9.89
2022-12-29T07:09:32.231Z,9.86
2022-12-29T07:14:39.168Z,9.86
2022-12-29T07:19:45.215Z,9.86
2022-12-29T07:24:47.006Z,9.88
2022-12-29T07:29:48.854Z,9.86
2022-12-29T07:34:50.562Z,9.89
2022-12-29T07:39:52.300Z,9.95
2022-12-29T07:44:54.112Z,9.99
2022-12-29T07:50:06.220Z,10.06
2022-12-29T07:55:08.650Z,10.16
2022-12-29T08:00:11.244Z,10.27
2022-12-29T08:05:16.450Z,10.33
2022-12-29T08:10:19.834Z,10.35
2022-12-29T08:15:24.418Z,10.39
2022-12-29T08:20:28.779Z,10.40
2022-12-29T08:25:30.467Z,10.40
2022-12-29T08:30:32.136Z,10.44
2022-12-29T08:35:33.828Z,10.48
2022-12-29T08:40:35.444Z,10.54
2022-12-29T08:45:37.189Z,10.61
2022-12-29T08:50:38.921Z,10.63
2022-12-29T08:55:40.951Z,10.69
2022-12-29T09:00:43.538Z,10.78
2022-12-29T09:05:49.412Z,10.88
2022-12-29T09:10:51.247Z,10.96
2022-12-29T09:15:59.391Z,11.03
2022-12-29T09:21:03.294Z,11.08
2022-12-29T09:26:05.525Z,11.13
2022-12-29T09:31:07.760Z,11.22
2022-12-29T09:36:09.663Z,11.34
2022-12-29T09:41:36.741Z,11.43
2022-12-29T09:46:43.792Z,11.51
2022-12-29T09:51:51.097Z,11.59
2022-12-29T09:56:53.961Z,11.68
2022-12-29T10:02:17.558Z,11.79
2022-12-29T10:07:46.522Z,11.85
2022-12-29T10:12:57.737Z,11.93
2022-12-29T10:18:31.306Z,12.01
2022-12-29T10:23:36.333Z,12.07
2022-12-29T10:28:53.888Z,12.11
2022-12-29T10:34:03.323Z,12.16
2022-12-29T10:39:24.266Z,12.23
2022-12-29T10:44:31.952Z,12.30
2022-12-29T10:49:40.201Z,12.41
2022-12-29T10:54:54.037Z,12.47
2022-12-29T10:59:56.272Z,12.52
2022-12-29T11:05:03.439Z,12.53
2022-12-29T11:10:23.600Z,12.53
2022-12-29T11:15:25.555Z,12.58
2022-12-29T11:20:35.734Z,12.61
2022-12-29T11:25:37.460Z,12.65
2022-12-29T11:30:39.172Z,12.70
2022-12-29T11:35:43.466Z,12.85
2022-12-29T11:40:45.195Z,13.02
2022-12-29T11:45:48.143Z,13.17
2022-12-29T11:50:54.892Z,13.31
2022-12-29T11:56:01.928Z,13.46
2022-12-29T12:01:14.628Z,13.60
2022-12-29T12:06:21.896Z,13.76
2022-12-29T12:11:37.189Z,13.90
2022-12-29T12:16:51.227Z,13.97
2022-12-29T12:22:01.233Z,14.07
2022-12-29T12:27:30.210Z,14.05
2022-12-29T12:32:45.053Z,14.00
2022-12-29T12:38:21.203Z,13.94
2022-12-29T12:43:34.997Z,13.88
2022-12-29T12:49:15.158Z,13.83
2022-12-29T12:54:23.055Z,13.76
2022-12-29T12:59:34.312Z,13.64
2022-12-29T13:04:59.989Z,13.46
2022-12-29T13:10:28.062Z,13.38
2022-12-29T13:16:00.668Z,13.30
2022-12-29T13:21:36.831Z,13.22
2022-12-29T13:26:55.376Z,13.19
2022-12-29T13:32:24.248Z,13.12
2022-12-29T13:37:29.001Z,13.10
2022-12-29T13:42:31.850Z,13.06
2022-12-29T13:47:38.643Z,13.00
2022-12-29T13:53:00.693Z,12.96
2022-12-29T13:58:18.718Z,12.97
2022-12-29T14:03:44.868Z,12.98
2022-12-29T14:08:48.577Z,13.00
2022-12-29T14:13:50.451Z,13.00
2022-12-29T14:18:52.466Z,12.97
2022-12-29T14:23:54.977Z,12.95
2022-12-29T14:29:02.916Z,12.92
2022-12-29T14:34:12.144Z,12.93
2022-12-29T14:39:36.140Z,12.90
2022-12-29T14:45:01.189Z,12.86
2022-12-29T14:50:26.036Z,12.80
2022-12-29T14:55:50.894Z,12.74
2022-12-29T15:00:53.361Z,12.64
2022-12-29T15:06:30.639Z,12.60
2022-12-29T15:11:58.658Z,12.55
2022-12-29T15:17:09.433Z,12.47
2022-12-29T15:22:12.035Z,12.38
2022-12-29T15:27:16.376Z,12.31
2022-12-29T15:32:23.832Z,12.30
2022-12-29T15:37:34.627Z,12.26
2022-12-29T15:43:08.683Z,12.14
2022-12-29T15:48:22.497Z,11.90
2022-12-29T15:53:29.484Z,11.57
2022-12-29T15:58:39.707Z,11.32
2022-12-29T16:03:41.705Z,11.09
2022-12-29T16:08:43.601Z,11.01
2022-12-29T16:13:45.696Z,10.91
2022-12-29T16:18:52.009Z,10.82
2022-12-29T16:24:03.109Z,10.97
2022-12-29T16:29:08.095Z,11.04
2022-12-29T16:34:23.672Z,10.97
2022-12-29T16:39:30.061Z,10.86
2022-12-29T16:44:32.348Z,10.81
2022-12-29T16:49:36.490Z,10.80
2022-12-29T16:54:39.788Z,10.96
2022-12-29T16:59:43.737Z,11.15
2022-12-29T17:04:49.321Z,11.28
2022-12-29T17:09:54.070Z,11.37
2022-12-29T17:15:02.356Z,11.50
2022-12-29T17:20:29.359Z,11.55
2022-12-29T17:25:37.272Z,11.65
2022-12-29T17:30:40.886Z,11.76
2022-12-29T17:35:42.643Z,11.84
2022-12-29T17:40:44.711Z,11.91
2022-12-29T17:45:57.659Z,11.96
2022-12-29T17:50:59.603Z,12.00
2022-12-29T17:56:01.401Z,12.03
2022-12-29T18:01:04.355Z,12.09
2022-12-29T18:06:08.407Z,12.12
2022-12-29T18:11:25.463Z,12.19
2022-12-29T18:16:27.783Z,12.19
2022-12-29T18:21:29.666Z,12.20
2022-12-29T18:26:35.741Z,12.20
2022-12-29T18:31:37.586Z,12.18
2022-12-29T18:36:39.577Z,12.15
2022-12-29T18:41:41.358Z,12.14
2022-12-29T18:46:43.140Z,12.13
2022-12-29T18:51:47.731Z,12.05
2022-12-29T18:56:49.410Z,11.95
2022-12-29T19:01:51.220Z,11.90
2022-12-29T19:06:52.997Z,11.87
2022-12-29T19:11:54.749Z,11.85
2022-12-29T19:16:56.451Z,11.84
2022-12-29T19:21:58.175Z,11.83
2022-12-29T19:26:59.887Z,11.84
2022-12-29T19:32:01.799Z,11.80
2022-12-29T19:37:03.933Z,11.83
2022-12-29T19:42:05.814Z,11.82
2022-12-29T19:47:07.524Z,11.82
2022-12-29T19:52:09.133Z,11.82
2022-12-29T19:57:10.862Z,11.78
2022-12-29T20:02:29.390Z,11.76
2022-12-29T20:07:31.345Z,11.74
2022-12-29T20:12:33.024Z,11.72
2022-12-29T20:18:10.845Z,11.71
2022-12-29T20:22:57.745Z,11.69
2022-12-29T20:27:59.894Z,11.69
2022-12-29T20:33:07.650Z,11.67
2022-12-29T20:38:09.984Z,11.57
2022-12-29T20:43:13.367Z,11.36
2022-12-29T20:48:15.110Z,11.13
2022-12-29T20:53:16.863Z,11.03
2022-12-29T20:58:26.015Z,10.93
2022-12-29T21:03:28.115Z,10.91
2022-12-29T21:08:30.701Z,10.90
2022-12-29T21:13:32.715Z,10.93
2022-12-29T21:18:35.071Z,10.95
2022-12-29T21:23:40.385Z,10.91
2022-12-29T21:28:43.480Z,10.84
2022-12-29T21:33:45.238Z,10.58
2022-12-29T21:38:47.274Z,10.41
2022-12-29T21:44:08.460Z,10.34
2022-12-29T21:49:10.271Z,10.18
2022-12-29T21:54:30.648Z,10.24
2022-12-29T21:59:51.056Z,10.20
2022-12-29T22:05:11.572Z,9.91
2022-12-29T22:10:32.744Z,9.75
2022-12-29T22:15:37.321Z,9.69
2022-12-29T22:20:39.119Z,9.75
2022-12-29T22:25:41.133Z,9.84
2022-12-29T22:30:42.973Z,9.81
2022-12-29T22:35:45.231Z,9.84
2022-12-29T22:40:47.005Z,9.77
2022-12-29T22:45:48.701Z,9.68
2022-12-29T22:50:55.261Z,9.54
2022-12-29T22:56:09.317Z,9.45
2022-12-29T23:01:13.066Z,9.35
2022-12-29T23:06:16.734Z,9.25
2022-12-29T23:11:18.413Z,9.13
2022-12-29T23:16:20.941Z,9.01
2022-12-29T23:21:22.697Z,8.99
2022-12-29T23:26:28.280Z,8.90
2022-12-29T23:31:30.843Z,8.81
2022-12-29T23:36:32.922Z,8.77
2022-12-29T23:41:34.860Z,8.72
2022-12-29T23:46:37.121Z,8.66
2022-12-29T23:51:39.032Z,8.65
2022-12-29T23:56:40.785Z,8.66
